Time;durP1;ratioP1;P1;durP2;ratioP2;P2;SDS_P1;SDS_P2;PMS_P1;PMS_P2;Temp;Humidity;BMP_temperature;BMP_pressure;BME280_temperature;BME280_humidity;BME280_pressure;Samples;Min_cycle;Max_cycle;Signal;HPM_P1;HPM_P2
2022/12/08 00:00:25;;;;;;;1.80;1.70;;;;;;;;;;5037693;28;20598;-72
2022/12/08 00:02:54;;;;;;;2.15;1.88;;;;;;;;;;5037341;28;20244;-72
2022/12/08 00:10:52;;;;;;;1.98;1.80;;;;;;;;;;5036788;28;20196;-69
2022/12/08 00:13:19;;;;;;;1.92;1.80;;;;;;;;;;5036559;28;20209;-70
2022/12/08 00:15:47;;;;;;;1.90;1.80;;;;;;;;;;5036872;28;20271;-71
2022/12/08 00:18:16;;;;;;;2.10;2.00;;;;;;;;;;5036936;28;20245;-71
2022/12/08 00:20:44;;;;;;;1.50;1.40;;;;;;;;;;5037182;28;20233;-70
2022/12/08 00:23:12;;;;;;;1.70;1.60;;;;;;;;;;5032457;28;20202;-72
2022/12/08 00:25:40;;;;;;;1.70;1.60;;;;;;;;;;5017332;28;20481;-72
2022/12/08 00:28:07;;;;;;;1.48;1.38;;;;;;;;;;5016666;28;20442;-72
2022/12/08 00:30:35;;;;;;;1.60;1.50;;;;;;;;;;5017648;28;20207;-71
2022/12/08 00:33:03;;;;;;;1.45;1.35;;;;;;;;;;5017385;28;20573;-72
2022/12/08 00:35:33;;;;;;;3.20;1.40;;;;;;;;;;5017319;28;20206;-72
2022/12/08 00:38:00;;;;;;;1.40;1.30;;;;;;;;;;5017360;28;20203;-72
2022/12/08 00:40:28;;;;;;;2.15;1.35;;;;;;;;;;5018931;28;20261;-74
2022/12/08 00:42:56;;;;;;;1.60;1.50;;;;;;;;;;5023930;28;20574;-74
2022/12/08 00:45:24;;;;;;;1.50;1.40;;;;;;;;;;5017344;28;20470;-74
2022/12/08 00:47:51;;;;;;;1.83;1.70;;;;;;;;;;5019853;28;20320;-74
2022/12/08 00:50:19;;;;;;;2.67;2.47;;;;;;;;;;5020964;28;20199;-73
2022/12/08 00:52:48;;;;;;;2.45;2.25;;;;;;;;;;5020678;28;20207;-74
2022/12/08 00:55:16;;;;;;;2.58;2.30;;;;;;;;;;5020584;28;20206;-73
2022/12/08 00:57:44;;;;;;;2.70;2.33;;;;;;;;;;5020574;28;20202;-73
2022/12/08 01:00:12;;;;;;;2.42;2.22;;;;;;;;;;5020805;28;20214;-73
2022/12/08 01:02:39;;;;;;;2.83;1.98;;;;;;;;;;5020553;28;20272;-73
2022/12/08 01:05:08;;;;;;;2.30;2.10;;;;;;;;;;5020565;28;20449;-74
2022/12/08 01:07:36;;;;;;;2.20;2.00;;;;;;;;;;5020841;28;20559;-74
2022/12/08 01:10:05;;;;;;;1.95;1.85;;;;;;;;;;5020911;28;20258;-74
2022/12/08 01:12:33;;;;;;;2.92;2.00;;;;;;;;;;5020551;28;20514;-73
2022/12/08 01:15:01;;;;;;;2.28;2.08;;;;;;;;;;5020618;28;20239;-73
2022/12/08 01:17:29;;;;;;;2.25;1.73;;;;;;;;;;5020219;28;20264;-73
2022/12/08 01:19:56;;;;;;;1.70;1.60;;;;;;;;;;5020325;28;20220;-74
2022/12/08 01:22:24;;;;;;;1.80;1.70;;;;;;;;;;5020062;28;20206;-73
2022/12/08 01:24:52;;;;;;;2.67;1.77;;;;;;;;;;5020403;28;20213;-73
2022/12/08 01:27:21;;;;;;;1.85;1.63;;;;;;;;;;5020202;28;20234;-73
2022/12/08 01:29:49;;;;;;;1.98;1.73;;;;;;;;;;5020480;28;20213;-74
2022/12/08 01:32:17;;;;;;;1.80;1.70;;;;;;;;;;5020071;28;20602;-74
2022/12/08 01:34:44;;;;;;;1.67;1.58;;;;;;;;;;5019892;28;20257;-73
2022/12/08 01:37:12;;;;;;;1.70;1.60;;;;;;;;;;5020253;28;20202;-73
2022/12/08 01:39:40;;;;;;;1.70;1.60;;;;;;;;;;5020158;28;20556;-74
2022/12/08 01:42:16;;;;;;;2.03;1.58;;;;;;;;;;5020014;28;20578;-74
2022/12/08 01:44:59;;;;;;;1.65;1.55;;;;;;;;;;5019575;28;20289;-73
2022/12/08 01:47:29;;;;;;;1.77;1.60;;;;;;;;;;4999327;28;20238;-74
2022/12/08 01:49:56;;;;;;;1.70;1.60;;;;;;;;;;5020082;28;20484;-73
2022/12/08 01:52:26;;;;;;;1.40;1.30;;;;;;;;;;5020052;28;20544;-74
2022/12/08 01:54:57;;;;;;;1.65;1.52;;;;;;;;;;5019001;28;20598;-74
2022/12/08 01:57:27;;;;;;;1.50;1.40;;;;;;;;;;5018832;28;20248;-73
2022/12/08 01:59:56;;;;;;;1.45;1.35;;;;;;;;;;5018927;28;20300;-73
2022/12/08 02:02:27;;;;;;;1.70;1.60;;;;;;;;;;5019864;28;20210;-73
2022/12/08 02:04:54;;;;;;;1.67;1.50;;;;;;;;;;5019294;28;20214;-74
2022/12/08 02:07:23;;;;;;;1.45;1.35;;;;;;;;;;5019308;28;20720;-73
2022/12/08 02:09:51;;;;;;;1.50;1.40;;;;;;;;;;5019378;28;20300;-74
2022/12/08 02:12:19;;;;;;;1.48;1.30;;;;;;;;;;5018751;28;20213;-74
2022/12/08 02:14:46;;;;;;;1.33;1.23;;;;;;;;;;5032613;28;20241;-74
2022/12/08 02:17:23;;;;;;;1.38;1.27;;;;;;;;;;5038977;28;20251;-73
2022/12/08 02:20:20;;;;;;;1.50;1.40;;;;;;;;;;5038962;28;20205;-73
2022/12/08 02:22:53;;;;;;;1.20;1.10;;;;;;;;;;5017627;28;20296;-74
2022/12/08 02:25:25;;;;;;;1.20;1.10;;;;;;;;;;5034664;28;20577;-73
2022/12/08 02:27:59;;;;;;;1.25;1.20;;;;;;;;;;5038891;28;20230;-74
2022/12/08 02:30:33;;;;;;;1.30;1.20;;;;;;;;;;5039177;28;20561;-73
2022/12/08 02:33:28;;;;;;;1.20;1.10;;;;;;;;;;5038910;28;20487;-74
2022/12/08 02:36:01;;;;;;;1.30;1.20;;;;;;;;;;5038646;28;20259;-74
2022/12/08 02:38:32;;;;;;;1.27;1.17;;;;;;;;;;5031398;28;20281;-73
2022/12/08 02:41:03;;;;;;;1.38;1.20;;;;;;;;;;5017500;28;20630;-74
2022/12/08 02:43:36;;;;;;;1.35;1.25;;;;;;;;;;5030661;28;20240;-74
2022/12/08 02:46:06;;;;;;;1.30;1.20;;;;;;;;;;5038326;28;20209;-74
2022/12/08 02:48:35;;;;;;;1.20;1.10;;;;;;;;;;5038106;28;20230;-73
2022/12/08 02:51:04;;;;;;;1.20;1.10;;;;;;;;;;5038115;28;20280;-74
2022/12/08 02:53:32;;;;;;;1.10;1.00;;;;;;;;;;5038293;28;20209;-73
2022/12/08 02:56:04;;;;;;;1.17;1.08;;;;;;;;;;5038258;28;20209;-74
2022/12/08 02:58:46;;;;;;;1.10;1.00;;;;;;;;;;5038452;28;20236;-73
2022/12/08 03:01:21;;;;;;;1.20;1.10;;;;;;;;;;5038054;28;20205;-74
2022/12/08 03:03:52;;;;;;;1.25;1.15;;;;;;;;;;5037786;28;20205;-73
2022/12/08 03:06:25;;;;;;;0.90;0.90;;;;;;;;;;5017933;28;20214;-74
2022/12/08 03:08:56;;;;;;;0.90;0.90;;;;;;;;;;5018710;28;20269;-74
2022/12/08 03:11:26;;;;;;;1.10;1.00;;;;;;;;;;5018160;28;20575;-74
2022/12/08 03:13:55;;;;;;;0.90;0.80;;;;;;;;;;5018169;28;20321;-73
2022/12/08 03:16:24;;;;;;;1.05;1.05;;;;;;;;;;5017957;28;20297;-73
2022/12/08 03:18:54;;;;;;;1.10;1.00;;;;;;;;;;5017933;28;20301;-73
2022/12/08 03:21:24;;;;;;;0.95;0.90;;;;;;;;;;5018034;28;20288;-73
2022/12/08 03:23:53;;;;;;;1.35;0.98;;;;;;;;;;5018179;28;20304;-74
2022/12/08 03:26:23;;;;;;;0.93;0.90;;;;;;;;;;5018037;28;20210;-74
2022/12/08 03:28:51;;;;;;;0.88;0.88;;;;;;;;;;5017901;28;20625;-74
2022/12/08 03:31:20;;;;;;;1.25;0.90;;;;;;;;;;5018259;28;20545;-74
2022/12/08 03:33:49;;;;;;;0.88;0.88;;;;;;;;;;5017704;28;20213;-74
2022/12/08 03:36:17;;;;;;;1.00;0.90;;;;;;;;;;5018051;28;20466;-74
2022/12/08 03:38:47;;;;;;;0.90;0.80;;;;;;;;;;5017957;28;20210;-74
2022/12/08 03:41:21;;;;;;;0.98;0.88;;;;;;;;;;5017887;28;20214;-74
2022/12/08 03:43:49;;;;;;;1.05;0.90;;;;;;;;;;5017936;28;20292;-74
2022/12/08 03:46:17;;;;;;;1.17;0.73;;;;;;;;;;5017689;28;20593;-74
2022/12/08 03:48:45;;;;;;;0.85;0.85;;;;;;;;;;5017771;28;20230;-74
2022/12/08 03:51:13;;;;;;;0.93;0.90;;;;;;;;;;5017546;28;20216;-74
2022/12/08 03:53:41;;;;;;;1.55;0.90;;;;;;;;;;5017551;28;20207;-74
2022/12/08 03:56:14;;;;;;;0.90;0.90;;;;;;;;;;5017649;28;20628;-74
2022/12/08 03:58:44;;;;;;;0.80;0.80;;;;;;;;;;5017105;28;20230;-74
2022/12/08 04:01:12;;;;;;;0.88;0.88;;;;;;;;;;5033730;28;20206;-74
2022/12/08 04:03:40;;;;;;;0.80;0.80;;;;;;;;;;5030580;28;20549;-74
2022/12/08 04:06:08;;;;;;;0.90;0.90;;;;;;;;;;5037262;28;20488;-74
2022/12/08 04:08:36;;;;;;;1.15;1.05;;;;;;;;;;5037242;28;20324;-74
2022/12/08 04:11:05;;;;;;;0.95;0.95;;;;;;;;;;5037447;28;20206;-74
2022/12/08 04:13:33;;;;;;;0.90;0.90;;;;;;;;;;5037165;28;20232;-74
2022/12/08 04:16:02;;;;;;;0.75;0.75;;;;;;;;;;5036989;28;20241;-74
2022/12/08 04:18:29;;;;;;;1.10;1.00;;;;;;;;;;5036835;28;20765;-74
2022/12/08 04:20:57;;;;;;;0.77;0.77;;;;;;;;;;5036036;28;20216;-74
2022/12/08 04:23:25;;;;;;;0.85;0.85;;;;;;;;;;5040423;28;20209;-74
2022/12/08 04:25:53;;;;;;;0.90;0.90;;;;;;;;;;5040145;28;20210;-74
2022/12/08 04:28:21;;;;;;;0.85;0.80;;;;;;;;;;5039868;28;20331;-74
2022/12/08 04:30:49;;;;;;;1.02;1.00;;;;;;;;;;5041029;28;20216;-74
2022/12/08 04:33:19;;;;;;;1.02;0.80;;;;;;;;;;5040521;28;20210;-74
2022/12/08 04:35:46;;;;;;;0.95;0.95;;;;;;;;;;5040716;28;20208;-74
2022/12/08 04:38:14;;;;;;;0.80;0.80;;;;;;;;;;5040657;28;20202;-74
2022/12/08 04:40:42;;;;;;;1.33;0.90;;;;;;;;;;5041098;28;20540;-74
2022/12/08 04:43:10;;;;;;;1.05;0.93;;;;;;;;;;5039423;28;20475;-74
2022/12/08 04:45:40;;;;;;;0.90;0.90;;;;;;;;;;5033676;28;20476;-74
2022/12/08 04:48:08;;;;;;;0.88;0.88;;;;;;;;;;5040320;28;20236;-74
2022/12/08 04:50:39;;;;;;;0.95;0.88;;;;;;;;;;5040032;28;20209;-73
2022/12/08 04:53:07;;;;;;;0.90;0.90;;;;;;;;;;5040461;28;20205;-74
2022/12/08 04:55:35;;;;;;;1.02;1.00;;;;;;;;;;5021773;28;20238;-74
2022/12/08 04:58:03;;;;;;;0.90;0.90;;;;;;;;;;5020364;28;20496;-73
2022/12/08 05:00:30;;;;;;;1.00;0.90;;;;;;;;;;5020237;28;20217;-73
2022/12/08 05:02:57;;;;;;;1.13;0.90;;;;;;;;;;5019917;28;20301;-74
2022/12/08 05:05:25;;;;;;;0.90;0.90;;;;;;;;;;5019723;28;20205;-74
2022/12/08 05:07:53;;;;;;;0.80;0.80;;;;;;;;;;5019632;28;20214;-74
2022/12/08 05:10:21;;;;;;;0.80;0.80;;;;;;;;;;5019631;28;20662;-74
2022/12/08 05:12:48;;;;;;;0.95;0.95;;;;;;;;;;5020242;28;20307;-74
2022/12/08 05:15:16;;;;;;;0.90;0.90;;;;;;;;;;5019715;28;20240;-73
2022/12/08 05:17:43;;;;;;;1.27;1.17;;;;;;;;;;5019612;28;20317;-73
2022/12/08 05:20:11;;;;;;;0.80;0.80;;;;;;;;;;5019934;28;20214;-74
2022/12/08 05:22:39;;;;;;;0.70;0.70;;;;;;;;;;5032771;28;20284;-74
2022/12/08 05:25:08;;;;;;;1.10;1.00;;;;;;;;;;5039318;28;20220;-73
2022/12/08 05:27:36;;;;;;;1.02;0.95;;;;;;;;;;5039317;28;20206;-74
2022/12/08 05:30:03;;;;;;;1.00;0.82;;;;;;;;;;5039277;28;20232;-74
2022/12/08 05:32:31;;;;;;;0.77;0.75;;;;;;;;;;5038523;28;20202;-74
2022/12/08 05:34:58;;;;;;;1.10;1.00;;;;;;;;;;5037706;28;20313;-73
2022/12/08 05:37:26;;;;;;;0.95;0.93;;;;;;;;;;5038760;28;20304;-74
2022/12/08 05:39:53;;;;;;;0.70;0.70;;;;;;;;;;5038349;28;20237;-74
2022/12/08 05:42:22;;;;;;;0.90;0.90;;;;;;;;;;5038530;28;20212;-74
2022/12/08 05:44:49;;;;;;;1.15;1.10;;;;;;;;;;5037362;28;20206;-73
2022/12/08 05:47:17;;;;;;;0.90;0.90;;;;;;;;;;5038023;28;20300;-74
2022/12/08 05:49:44;;;;;;;1.00;0.88;;;;;;;;;;5027374;28;20233;-74
2022/12/08 05:52:12;;;;;;;0.82;0.82;;;;;;;;;;5018214;28;20214;-74
2022/12/08 05:54:39;;;;;;;1.10;1.00;;;;;;;;;;5017987;28;20216;-74
2022/12/08 05:57:07;;;;;;;0.80;0.80;;;;;;;;;;5017651;28;20661;-73
2022/12/08 05:59:36;;;;;;;0.90;0.90;;;;;;;;;;5017518;28;20484;-74
2022/12/08 06:02:03;;;;;;;1.20;1.10;;;;;;;;;;5017927;28;20237;-74
2022/12/08 06:04:31;;;;;;;1.25;1.15;;;;;;;;;;5016549;28;20313;-73
2022/12/08 06:06:58;;;;;;;1.00;1.00;;;;;;;;;;5017400;28;20206;-74
2022/12/08 06:09:26;;;;;;;0.90;0.90;;;;;;;;;;5017379;28;20322;-74
2022/12/08 06:11:53;;;;;;;1.13;1.00;;;;;;;;;;5016871;28;20202;-73
2022/12/08 06:14:21;;;;;;;1.25;1.15;;;;;;;;;;5016132;28;20741;-74
2022/12/08 06:16:50;;;;;;;1.10;1.00;;;;;;;;;;5022212;28;20202;-74
2022/12/08 06:19:18;;;;;;;1.02;1.02;;;;;;;;;;5035494;28;20672;-73
2022/12/08 06:21:45;;;;;;;0.90;0.90;;;;;;;;;;5036110;28;20300;-73
2022/12/08 06:24:13;;;;;;;1.10;1.00;;;;;;;;;;5036116;28;20268;-74
2022/12/08 06:26:42;;;;;;;2.15;1.00;;;;;;;;;;5035972;28;20684;-74
2022/12/08 06:29:10;;;;;;;0.93;0.90;;;;;;;;;;5036041;28;20225;-74
2022/12/08 06:31:37;;;;;;;0.95;0.90;;;;;;;;;;5037085;28;20312;-74
2022/12/08 06:34:06;;;;;;;1.30;1.20;;;;;;;;;;5036760;28;20241;-74
2022/12/08 06:36:34;;;;;;;1.40;1.30;;;;;;;;;;5035863;28;20680;-74
2022/12/08 06:39:02;;;;;;;1.75;1.50;;;;;;;;;;5036043;28;20210;-74
2022/12/08 06:41:29;;;;;;;1.30;1.20;;;;;;;;;;5035367;28;20218;-74
2022/12/08 06:43:57;;;;;;;1.83;1.20;;;;;;;;;;5027005;28;20289;-74
2022/12/08 06:46:24;;;;;;;1.30;1.20;;;;;;;;;;5015430;28;20217;-74
2022/12/08 06:48:51;;;;;;;2.20;1.40;;;;;;;;;;5014543;28;20293;-73
2022/12/08 06:51:22;;;;;;;1.65;1.25;;;;;;;;;;5015138;28;20289;-74
2022/12/08 06:53:49;;;;;;;1.30;1.20;;;;;;;;;;5015142;28;20596;-74
2022/12/08 06:56:21;;;;;;;1.48;1.30;;;;;;;;;;5015570;28;20241;-74
2022/12/08 06:58:48;;;;;;;1.98;1.20;;;;;;;;;;5015036;28;20194;-73
2022/12/08 07:01:16;;;;;;;2.38;1.58;;;;;;;;;;5015317;28;20213;-73
2022/12/08 07:03:43;;;;;;;2.42;1.55;;;;;;;;;;5015952;28;20268;-74
2022/12/08 07:06:14;;;;;;;1.83;1.60;;;;;;;;;;5015104;28;20199;-74
2022/12/08 07:08:43;;;;;;;3.50;3.20;;;;;;;;;;5016257;28;20505;-74
2022/12/08 07:11:11;;;;;;;2.42;2.20;;;;;;;;;;5017154;28;20501;-74
2022/12/08 07:13:39;;;;;;;2.58;2.38;;;;;;;;;;5034083;28;20739;-74
2022/12/08 07:16:07;;;;;;;3.88;3.45;;;;;;;;;;5034796;28;20220;-74
2022/12/08 07:18:35;;;;;;;3.50;3.30;;;;;;;;;;5035811;28;20288;-73
2022/12/08 07:21:05;;;;;;;3.50;3.20;;;;;;;;;;5034594;28;20328;-74
2022/12/08 07:23:33;;;;;;;3.28;2.90;;;;;;;;;;5034816;28;20296;-73
2022/12/08 07:26:03;;;;;;;3.80;2.90;;;;;;;;;;5035342;28;20201;-73
2022/12/08 07:28:31;;;;;;;3.50;3.20;;;;;;;;;;5035736;28;20288;-73
2022/12/08 07:30:58;;;;;;;3.50;3.20;;;;;;;;;;5035341;28;20346;-74
2022/12/08 07:33:25;;;;;;;3.13;2.92;;;;;;;;;;5035142;28;20213;-74
2022/12/08 07:35:57;;;;;;;3.45;3.00;;;;;;;;;;5035910;28;20296;-74
2022/12/08 07:38:24;;;;;;;4.75;2.88;;;;;;;;;;5028642;28;20297;-74
2022/12/08 07:40:53;;;;;;;3.33;2.95;;;;;;;;;;5015983;28;20301;-74
2022/12/08 07:43:22;;;;;;;4.72;3.20;;;;;;;;;;5015876;28;20213;-74
2022/12/08 07:45:50;;;;;;;4.15;2.75;;;;;;;;;;5015835;28;20586;-74
2022/12/08 07:48:17;;;;;;;4.97;3.25;;;;;;;;;;5015452;28;20294;-74
2022/12/08 07:50:45;;;;;;;4.85;2.70;;;;;;;;;;5014619;28;20316;-74
2022/12/08 07:53:13;;;;;;;3.80;2.53;;;;;;;;;;5015726;28;20214;-74
2022/12/08 07:55:41;;;;;;;2.60;2.40;;;;;;;;;;5015631;28;20244;-74
2022/12/08 07:58:08;;;;;;;3.00;2.60;;;;;;;;;;5015658;28;20569;-74
2022/12/08 08:00:37;;;;;;;4.90;2.85;;;;;;;;;;5015304;28;20313;-74
2022/12/08 08:03:05;;;;;;;4.13;2.60;;;;;;;;;;5015398;28;20318;-75
2022/12/08 08:05:32;;;;;;;2.70;2.50;;;;;;;;;;5014157;28;20639;-74
2022/12/08 08:08:00;;;;;;;2.75;2.55;;;;;;;;;;5030908;28;20215;-74
2022/12/08 08:10:27;;;;;;;4.18;2.40;;;;;;;;;;5034341;28;20225;-74
2022/12/08 08:12:54;;;;;;;2.60;2.40;;;;;;;;;;5034417;28;20605;-74
2022/12/08 08:15:22;;;;;;;3.78;2.65;;;;;;;;;;5034510;28;20259;-74
2022/12/08 08:17:51;;;;;;;2.92;2.60;;;;;;;;;;5035036;28;20205;-74
2022/12/08 08:20:19;;;;;;;3.55;2.10;;;;;;;;;;5035051;28;20206;-74
2022/12/08 08:22:47;;;;;;;3.10;2.25;;;;;;;;;;5034556;28;20202;-74
2022/12/08 08:25:14;;;;;;;2.65;2.20;;;;;;;;;;5034222;28;20263;-74
2022/12/08 08:27:42;;;;;;;2.65;2.30;;;;;;;;;;5034730;28;20303;-74
2022/12/08 08:30:10;;;;;;;3.28;2.30;;;;;;;;;;5034577;28;20229;-74
2022/12/08 08:32:38;;;;;;;2.58;2.20;;;;;;;;;;5031271;28;20305;-74
2022/12/08 08:35:08;;;;;;;3.55;2.30;;;;;;;;;;5014662;28;20213;-74
2022/12/08 08:37:35;;;;;;;2.88;2.40;;;;;;;;;;5014879;28;20724;-74
2022/12/08 08:40:03;;;;;;;3.13;2.28;;;;;;;;;;5014405;28;20209;-74
2022/12/08 08:42:31;;;;;;;2.42;2.03;;;;;;;;;;5015012;28;20206;-74
2022/12/08 08:44:58;;;;;;;3.15;2.40;;;;;;;;;;5014500;28;20199;-74
2022/12/08 08:47:25;;;;;;;2.33;2.10;;;;;;;;;;5015180;28;20202;-74
2022/12/08 08:49:53;;;;;;;2.15;2.03;;;;;;;;;;5014489;28;20230;-74
2022/12/08 08:52:22;;;;;;;2.25;2.00;;;;;;;;;;5014604;28;20299;-74
2022/12/08 08:54:49;;;;;;;2.42;2.10;;;;;;;;;;5013436;28;20210;-74
2022/12/08 08:57:17;;;;;;;2.00;1.90;;;;;;;;;;5013878;28;20207;-74
2022/12/08 08:59:44;;;;;;;2.35;1.85;;;;;;;;;;5014751;28;20194;-74
2022/12/08 09:02:16;;;;;;;2.72;2.10;;;;;;;;;;5032736;28;20601;-74
2022/12/08 09:04:43;;;;;;;1.95;1.85;;;;;;;;;;5034514;28;20305;-74
2022/12/08 09:07:11;;;;;;;2.00;1.90;;;;;;;;;;5034317;28;20524;-74
2022/12/08 09:09:40;;;;;;;2.95;2.13;;;;;;;;;;5037574;28;20316;-74
2022/12/08 09:12:07;;;;;;;2.88;2.03;;;;;;;;;;5037126;28;20212;-74
2022/12/08 09:14:35;;;;;;;2.00;1.90;;;;;;;;;;5037123;28;20237;-74
2022/12/08 09:17:02;;;;;;;2.22;2.00;;;;;;;;;;5037387;28;20296;-74
2022/12/08 09:19:29;;;;;;;1.92;1.83;;;;;;;;;;5037695;28;20205;-73
2022/12/08 09:21:57;;;;;;;1.80;1.70;;;;;;;;;;5037716;28;20206;-74
2022/12/08 09:24:24;;;;;;;2.10;1.90;;;;;;;;;;5037235;28;20589;-74
2022/12/08 09:26:53;;;;;;;2.03;1.92;;;;;;;;;;5037528;28;20653;-74
2022/12/08 09:29:20;;;;;;;2.05;1.83;;;;;;;;;;5019214;28;20496;-74
2022/12/08 09:31:48;;;;;;;2.03;1.92;;;;;;;;;;5027810;28;20280;-74
2022/12/08 09:34:15;;;;;;;2.97;1.90;;;;;;;;;;5035417;28;20310;-74
2022/12/08 09:36:46;;;;;;;2.75;1.77;;;;;;;;;;5037462;28;20301;-74
2022/12/08 09:39:14;;;;;;;2.38;2.20;;;;;;;;;;5031962;28;20236;-74
2022/12/08 09:41:45;;;;;;;3.70;1.60;;;;;;;;;;5016940;28;20304;-74
2022/12/08 09:44:34;;;;;;;2.33;1.88;;;;;;;;;;5025435;28;20530;-74
2022/12/08 09:47:04;;;;;;;2.13;1.83;;;;;;;;;;5033109;28;20227;-74
2022/12/08 09:49:36;;;;;;;1.80;1.70;;;;;;;;;;5036267;28;20332;-74
2022/12/08 09:52:04;;;;;;;1.80;1.70;;;;;;;;;;5036855;28;20198;-74
2022/12/08 09:54:34;;;;;;;2.10;1.90;;;;;;;;;;5036224;28;20237;-74
2022/12/08 09:57:04;;;;;;;1.70;1.60;;;;;;;;;;5022719;28;20218;-74
2022/12/08 09:59:32;;;;;;;2.05;1.88;;;;;;;;;;5017220;28;20202;-74
2022/12/08 10:02:00;;;;;;;2.10;1.90;;;;;;;;;;5016457;28;20244;-74
2022/12/08 10:04:31;;;;;;;2.67;1.80;;;;;;;;;;5016007;28;20213;-74
2022/12/08 10:07:03;;;;;;;1.80;1.67;;;;;;;;;;5015976;28;20753;-74
2022/12/08 10:09:35;;;;;;;2.03;1.70;;;;;;;;;;5015728;28;20222;-74
2022/12/08 10:12:05;;;;;;;1.75;1.65;;;;;;;;;;5032497;28;20194;-74
2022/12/08 10:14:36;;;;;;;2.30;1.90;;;;;;;;;;5035161;28;20790;-74
2022/12/08 10:17:06;;;;;;;1.80;1.63;;;;;;;;;;5034488;28;20204;-74
2022/12/08 10:19:35;;;;;;;1.80;1.70;;;;;;;;;;5034420;28;20288;-74
2022/12/08 10:22:06;;;;;;;2.20;1.75;;;;;;;;;;5035454;28;20202;-74
2022/12/08 10:24:36;;;;;;;1.77;1.67;;;;;;;;;;5035487;28;20311;-74
2022/12/08 10:27:03;;;;;;;2.10;1.90;;;;;;;;;;5029304;28;20194;-74
2022/12/08 10:29:31;;;;;;;2.08;1.90;;;;;;;;;;5016610;28;20206;-74
2022/12/08 10:32:00;;;;;;;1.98;1.77;;;;;;;;;;5015710;28;20206;-74
2022/12/08 10:34:27;;;;;;;2.10;1.90;;;;;;;;;;5023872;28;20614;-74
2022/12/08 10:36:59;;;;;;;1.80;1.70;;;;;;;;;;5019822;28;20229;-74
2022/12/08 10:39:34;;;;;;;1.98;1.77;;;;;;;;;;5025164;28;20211;-74
2022/12/08 10:42:02;;;;;;;1.90;1.80;;;;;;;;;;5013750;28;20242;-74
2022/12/08 10:44:30;;;;;;;2.28;2.13;;;;;;;;;;5014375;28;20612;-74
2022/12/08 10:46:57;;;;;;;2.15;2.03;;;;;;;;;;5023215;28;20225;-74
2022/12/08 10:49:32;;;;;;;2.03;1.85;;;;;;;;;;5030204;28;20837;-74
2022/12/08 10:52:01;;;;;;;1.98;1.88;;;;;;;;;;5035268;28;20267;-74
2022/12/08 10:54:29;;;;;;;2.30;2.10;;;;;;;;;;5034811;28;20308;-74
2022/12/08 10:56:58;;;;;;;2.10;1.90;;;;;;;;;;5034408;28;20209;-74
2022/12/08 10:59:26;;;;;;;2.03;1.90;;;;;;;;;;5034019;28;20198;-74
2022/12/08 11:01:54;;;;;;;2.10;1.90;;;;;;;;;;5030636;28;20193;-74
2022/12/08 11:04:23;;;;;;;2.05;1.95;;;;;;;;;;5017869;28;20201;-74
2022/12/08 11:06:51;;;;;;;1.90;1.80;;;;;;;;;;5029792;28;20201;-74
2022/12/08 11:09:31;;;;;;;2.20;2.08;;;;;;;;;;5014420;28;20297;-74
2022/12/08 11:11:59;;;;;;;2.20;2.00;;;;;;;;;;5023195;28;20212;-74
2022/12/08 11:14:28;;;;;;;2.38;2.17;;;;;;;;;;5033670;28;20233;-74
2022/12/08 11:16:57;;;;;;;2.00;1.90;;;;;;;;;;5033292;28;20208;-74
2022/12/08 11:19:27;;;;;;;2.08;1.98;;;;;;;;;;5032667;28;20204;-74
2022/12/08 11:21:55;;;;;;;2.17;1.98;;;;;;;;;;5033972;28;20648;-74
2022/12/08 11:24:24;;;;;;;2.10;1.90;;;;;;;;;;5033317;28;20216;-74
2022/12/08 11:26:54;;;;;;;2.30;2.10;;;;;;;;;;5034384;28;20216;-74
2022/12/08 11:29:22;;;;;;;2.00;1.90;;;;;;;;;;5016533;28;20198;-74
2022/12/08 11:31:53;;;;;;;1.88;1.77;;;;;;;;;;5024917;28;20224;-74
2022/12/08 11:34:21;;;;;;;2.00;1.90;;;;;;;;;;5020066;28;20228;-74
2022/12/08 11:36:50;;;;;;;2.00;1.90;;;;;;;;;;5032258;28;20236;-73
2022/12/08 11:39:18;;;;;;;2.17;2.00;;;;;;;;;;5032690;28;20194;-74
2022/12/08 11:41:46;;;;;;;2.22;1.90;;;;;;;;;;5022126;28;20198;-74
2022/12/08 11:44:21;;;;;;;2.10;2.00;;;;;;;;;;5013512;28;20202;-74
2022/12/08 11:46:52;;;;;;;2.00;1.90;;;;;;;;;;5013563;28;20208;-74
2022/12/08 11:49:19;;;;;;;2.00;1.90;;;;;;;;;;5013129;28;20194;-74
2022/12/08 11:51:49;;;;;;;2.00;1.90;;;;;;;;;;5012942;28;20325;-74
2022/12/08 11:54:19;;;;;;;2.50;2.30;;;;;;;;;;5014579;28;20195;-74
2022/12/08 11:56:48;;;;;;;2.20;1.90;;;;;;;;;;5032732;28;20681;-74
2022/12/08 11:59:28;;;;;;;2.13;2.03;;;;;;;;;;5014081;28;20210;-74
2022/12/08 12:01:56;;;;;;;1.92;1.80;;;;;;;;;;5018216;28;20289;-74
2022/12/08 12:04:26;;;;;;;2.33;2.13;;;;;;;;;;5033157;28;20297;-74
2022/12/08 12:07:04;;;;;;;2.08;1.80;;;;;;;;;;5024370;28;20229;-73
2022/12/08 12:09:36;;;;;;;1.80;1.70;;;;;;;;;;5013201;28;20241;-74
2022/12/08 12:12:14;;;;;;;2.33;2.10;;;;;;;;;;5014237;28;20228;-74
2022/12/08 12:14:56;;;;;;;2.20;2.00;;;;;;;;;;5013292;28;20242;-74
2022/12/08 12:17:34;;;;;;;2.20;2.10;;;;;;;;;;5011810;28;20209;-74
2022/12/08 12:20:03;;;;;;;1.92;1.83;;;;;;;;;;5012474;28;20198;-74
2022/12/08 12:22:33;;;;;;;1.92;1.83;;;;;;;;;;5013321;28;20301;-74
2022/12/08 12:25:01;;;;;;;1.95;1.80;;;;;;;;;;5012963;28;20210;-74
2022/12/08 12:27:30;;;;;;;2.10;2.00;;;;;;;;;;5012956;28;20301;-74
2022/12/08 12:29:59;;;;;;;2.13;2.03;;;;;;;;;;5012902;28;20305;-74
2022/12/08 12:32:40;;;;;;;2.05;1.95;;;;;;;;;;5012758;28;20289;-74
2022/12/08 12:35:14;;;;;;;1.95;1.85;;;;;;;;;;5013392;28;20238;-73
2022/12/08 12:37:43;;;;;;;2.20;2.00;;;;;;;;;;5007932;28;20672;-73
2022/12/08 12:40:18;;;;;;;1.83;1.73;;;;;;;;;;5011105;28;20293;-73
2022/12/08 12:42:47;;;;;;;1.70;1.60;;;;;;;;;;5013717;28;20593;-73
2022/12/08 12:45:33;;;;;;;1.90;1.80;;;;;;;;;;5015750;28;20213;-74
2022/12/08 12:48:21;;;;;;;2.10;1.90;;;;;;;;;;5015810;28;20606;-74
2022/12/08 12:50:50;;;;;;;1.90;1.80;;;;;;;;;;5012941;28;20233;-74
2022/12/08 12:53:36;;;;;;;1.92;1.83;;;;;;;;;;5016840;28;20199;-73
2022/12/08 12:56:04;;;;;;;1.98;1.88;;;;;;;;;;5016605;28;20209;-74
2022/12/08 12:58:36;;;;;;;1.98;1.88;;;;;;;;;;5015687;28;20209;-73
2022/12/08 13:01:23;;;;;;;2.10;2.00;;;;;;;;;;5016545;28;20605;-74
2022/12/08 13:03:52;;;;;;;1.80;1.70;;;;;;;;;;5014435;28;20631;-73
2022/12/08 13:06:24;;;;;;;1.90;1.80;;;;;;;;;;5016564;28;20207;-73
2022/12/08 13:08:53;;;;;;;1.90;1.80;;;;;;;;;;5015245;28;20206;-73
2022/12/08 13:11:21;;;;;;;2.00;1.80;;;;;;;;;;5015684;28;20218;-73
2022/12/08 13:13:56;;;;;;;1.77;1.67;;;;;;;;;;5015691;28;20333;-73
2022/12/08 13:16:25;;;;;;;1.65;1.55;;;;;;;;;;5016056;28;20479;-73
2022/12/08 13:18:54;;;;;;;1.85;1.73;;;;;;;;;;5015383;28;20305;-73
2022/12/08 13:21:23;;;;;;;1.90;1.80;;;;;;;;;;4999809;28;20273;-73
2022/12/08 13:23:52;;;;;;;1.90;1.80;;;;;;;;;;5015783;28;20209;-73
2022/12/08 13:26:21;;;;;;;2.00;1.90;;;;;;;;;;5015684;28;20206;-73
2022/12/08 13:29:21;;;;;;;2.00;1.90;;;;;;;;;;5016177;28;20216;-73
2022/12/08 13:31:50;;;;;;;1.98;1.88;;;;;;;;;;5015512;28;20650;-73
2022/12/08 13:34:19;;;;;;;1.70;1.60;;;;;;;;;;5015403;28;20202;-73
2022/12/08 13:37:07;;;;;;;1.80;1.70;;;;;;;;;;5014553;28;20198;-74
2022/12/08 13:39:37;;;;;;;1.60;1.50;;;;;;;;;;5014852;28;20202;-74
2022/12/08 13:42:08;;;;;;;1.80;1.70;;;;;;;;;;5014026;28;20226;-73
2022/12/08 13:44:38;;;;;;;1.70;1.60;;;;;;;;;;5015299;28;20233;-73
2022/12/08 13:47:07;;;;;;;1.77;1.67;;;;;;;;;;5015986;28;20288;-73
2022/12/08 13:49:37;;;;;;;1.67;1.58;;;;;;;;;;5015990;28;20209;-73
2022/12/08 13:52:07;;;;;;;1.90;1.80;;;;;;;;;;4998830;28;20640;-73
2022/12/08 13:54:36;;;;;;;1.70;1.60;;;;;;;;;;5013566;28;20206;-74
2022/12/08 13:57:06;;;;;;;1.65;1.55;;;;;;;;;;5014973;28;20210;-74
2022/12/08 13:59:35;;;;;;;1.70;1.60;;;;;;;;;;5015358;28;20203;-73
2022/12/08 14:02:05;;;;;;;1.83;1.73;;;;;;;;;;5015198;28;20190;-73
2022/12/08 14:04:33;;;;;;;1.75;1.65;;;;;;;;;;5014477;28;20296;-73
2022/12/08 14:07:02;;;;;;;1.83;1.73;;;;;;;;;;5014368;28;20667;-73
2022/12/08 14:09:34;;;;;;;1.60;1.50;;;;;;;;;;5015262;28;20217;-73
2022/12/08 14:12:03;;;;;;;1.70;1.60;;;;;;;;;;5014365;28;20672;-73
2022/12/08 14:14:31;;;;;;;2.00;1.90;;;;;;;;;;5025420;28;20248;-74
2022/12/08 14:17:01;;;;;;;1.73;1.63;;;;;;;;;;5018314;28;20249;-73
2022/12/08 14:19:29;;;;;;;2.00;1.90;;;;;;;;;;5014500;28;20233;-73
2022/12/08 14:21:58;;;;;;;2.10;1.90;;;;;;;;;;5031633;28;20198;-73
2022/12/08 14:24:25;;;;;;;1.90;1.80;;;;;;;;;;5033818;28;20213;-73
2022/12/08 14:26:55;;;;;;;1.80;1.70;;;;;;;;;;5033652;28;20209;-74
2022/12/08 14:29:36;;;;;;;1.88;1.77;;;;;;;;;;5034352;28;20209;-74
2022/12/08 14:32:03;;;;;;;2.00;1.90;;;;;;;;;;5024928;28;20629;-73
2022/12/08 14:34:35;;;;;;;2.00;1.90;;;;;;;;;;5021421;28;20213;-73
2022/12/08 14:37:02;;;;;;;1.90;1.80;;;;;;;;;;5014483;28;20210;-74
2022/12/08 14:39:30;;;;;;;1.60;1.50;;;;;;;;;;5014875;28;20214;-73
2022/12/08 14:42:02;;;;;;;2.00;1.80;;;;;;;;;;5013916;28;20290;-73
2022/12/08 14:44:32;;;;;;;2.30;1.80;;;;;;;;;;5013396;28;20202;-73
2022/12/08 14:47:05;;;;;;;2.03;1.92;;;;;;;;;;5013848;28;20269;-73
2022/12/08 14:49:34;;;;;;;1.70;1.60;;;;;;;;;;5014531;28;20224;-73
2022/12/08 14:52:02;;;;;;;1.77;1.67;;;;;;;;;;5014164;28;20227;-73
2022/12/08 14:54:29;;;;;;;1.60;1.50;;;;;;;;;;5024437;28;20208;-73
2022/12/08 14:56:58;;;;;;;2.03;1.83;;;;;;;;;;5031803;28;20231;-73
2022/12/08 14:59:29;;;;;;;1.70;1.60;;;;;;;;;;5033724;28;20212;-73
2022/12/08 15:02:11;;;;;;;1.88;1.77;;;;;;;;;;5028836;28;20200;-74